Rechercher aéroport 
image banner adimage banner adimage banner ad
image banner ad

O06 - Lake Oroville Landing Area

Situé à Oroville, United States

ICAO - O06, IATA -

Données fournies par Airmate  

Information générale

Coordonnées: N39°33'60" W121°28'4"
Élévation : 900 feet MSL.
Variation magnétique : 17° East
Voir autres Aéroports à California

Données opérationnelles

Special qualification required
Heure actuelle UTC:
Heure actuelle locale:
Météo à : KOVE - Oroville Muni ( 16 km )
METAR: KOVE 020653Z AUTO 17008KT 10SM CLR 26/09 A2999 RMK AO2 SLP155 T02610094
Voir NOTAMs / SUP AIP / TFR affectant cet aéroport [VIEW]
Fréquences de communication: [VIEW]

Pistes:

Identifiant RWYQFULongueur (ft)Largeur (ft)SurfaceLDA (ft)
ALL90009000WATER
WAY90009000WATER

Coordonnées de l'aéroport

Adresse: Oroville United States

Vue satellite de O06